Time;durP1;ratioP1;P1;durP2;ratioP2;P2;SDS_P1;SDS_P2;PMS_P1;PMS_P2;Temp;Humidity;BMP_temperature;BMP_pressure;BME280_temperature;BME280_humidity;BME280_pressure;Samples;Min_cycle;Max_cycle;Signal;HPM_P1;HPM_P2
2021/09/25 00:00:07;;;;;;;15.15;8.98;;;435.60;2355.20;;;;;;4868920;29;20458;-75
2021/09/25 00:02:32;;;;;;;16.67;7.68;;;435.60;2355.20;;;;;;4868842;29;20033;-76
2021/09/25 00:04:58;;;;;;;17.70;8.05;;;435.50;2355.20;;;;;;4868697;29;20041;-76
2021/09/25 00:07:24;;;;;;;12.48;8.20;;;435.50;2355.20;;;;;;4871711;29;20063;-76
2021/09/25 00:09:50;;;;;;;13.27;8.02;;;435.60;2355.20;;;;;;4871625;29;20040;-76
2021/09/25 00:12:16;;;;;;;14.90;8.20;;;435.50;2355.20;;;;;;4872547;29;20076;-76
2021/09/25 00:14:43;;;;;;;13.15;8.95;;;435.40;2355.20;;;;;;4887849;29;20085;-76
2021/09/25 00:17:11;;;;;;;17.35;9.60;;;435.40;2355.20;;;;;;4873329;29;20017;-76
2021/09/25 00:19:40;;;;;;;11.18;8.60;;;435.40;2355.20;;;;;;4889490;29;20089;-76
2021/09/25 00:22:06;;;;;;;14.80;8.98;;;435.30;2355.20;;;;;;4888087;29;20029;-76
2021/09/25 00:24:32;;;;;;;13.88;9.82;;;435.30;2355.20;;;;;;4890658;29;20034;-75
2021/09/25 00:26:58;;;;;;;12.73;9.23;;;435.30;2355.20;;;;;;4888588;29;20025;-76
2021/09/25 00:29:24;;;;;;;19.33;9.27;;;435.20;2355.20;;;;;;4890158;29;20052;-76
2021/09/25 00:31:50;;;;;;;15.00;8.27;;;435.30;2355.20;;;;;;4890133;29;20389;-76
2021/09/25 00:34:16;;;;;;;14.07;8.98;;;435.30;2355.20;;;;;;4888432;29;20779;-75
2021/09/25 00:36:41;;;;;;;16.52;9.10;;;435.30;2355.20;;;;;;4889878;29;20021;-76
2021/09/25 00:39:07;;;;;;;15.57;9.15;;;435.20;2355.20;;;;;;4879581;29;20025;-76
2021/09/25 00:41:33;;;;;;;17.92;9.98;;;410.50;2355.20;;;;;;4879283;29;20021;-76
2021/09/25 00:43:59;;;;;;;21.95;9.70;;;410.50;2355.20;;;;;;4879446;29;20119;-76
2021/09/25 00:46:25;;;;;;;16.92;9.18;;;410.50;2355.20;;;;;;4879320;29;20390;-76
2021/09/25 00:48:51;;;;;;;16.40;10.07;;;410.40;2355.20;;;;;;4879607;29;20381;-76
2021/09/25 00:51:17;;;;;;;13.38;8.75;;;410.30;2355.20;;;;;;4862555;29;20108;-76
2021/09/25 00:53:43;;;;;;;14.13;8.80;;;410.20;2355.20;;;;;;4872846;29;20076;-76
2021/09/25 00:56:11;;;;;;;14.18;9.63;;;410.20;2355.20;;;;;;4889049;29;20370;-76
2021/09/25 00:58:38;;;;;;;14.20;9.35;;;410.00;2355.20;;;;;;4888759;29;20057;-76
2021/09/25 01:01:05;;;;;;;14.82;10.43;;;409.80;2355.20;;;;;;4887648;29;20021;-75
2021/09/25 01:03:31;;;;;;;15.77;9.45;;;409.70;2355.20;;;;;;4871697;29;20374;-76
2021/09/25 01:05:56;;;;;;;17.42;10.20;;;409.80;2355.20;;;;;;4888453;29;20036;-75
2021/09/25 01:08:23;;;;;;;15.18;10.05;;;409.80;2355.20;;;;;;4870249;29;20389;-76
2021/09/25 01:10:50;;;;;;;14.57;9.32;;;409.70;2355.20;;;;;;4875461;29;20099;-76
2021/09/25 01:13:17;;;;;;;14.75;9.98;;;409.80;2355.20;;;;;;4859413;29;20088;-75
2021/09/25 01:15:43;;;;;;;14.82;9.52;;;409.70;2355.20;;;;;;4860387;29;20498;-75
2021/09/25 01:18:08;;;;;;;17.48;9.85;;;409.70;2355.20;;;;;;4860398;29;20065;-75
2021/09/25 01:20:34;;;;;;;16.42;10.57;;;409.70;2355.20;;;;;;4860527;29;20033;-75
2021/09/25 01:23:00;;;;;;;15.10;10.07;;;409.70;2355.20;;;;;;4860289;29;20408;-76
2021/09/25 01:25:26;;;;;;;15.30;10.07;;;409.70;2355.20;;;;;;4859122;29;20053;-75
2021/09/25 01:27:52;;;;;;;13.07;9.50;;;409.70;2355.20;;;;;;4871978;29;20105;-75
2021/09/25 01:30:19;;;;;;;15.88;9.68;;;409.70;2355.20;;;;;;4861601;29;20045;-76
2021/09/25 01:32:46;;;;;;;15.20;10.15;;;409.70;2355.20;;;;;;4860395;29;20440;-76
2021/09/25 01:35:14;;;;;;;15.75;9.60;;;409.70;2355.20;;;;;;4858208;29;20060;-77
2021/09/25 01:37:40;;;;;;;14.18;9.77;;;409.80;2355.20;;;;;;4859157;29;20470;-77
2021/09/25 01:40:07;;;;;;;20.35;9.77;;;409.90;2355.20;;;;;;4860023;29;20485;-77
2021/09/25 01:42:33;;;;;;;15.60;9.55;;;409.80;2355.20;;;;;;4860158;29;20089;-78
2021/09/25 01:44:59;;;;;;;13.98;9.60;;;409.90;2355.20;;;;;;4871242;29;20037;-79
2021/09/25 01:47:25;;;;;;;15.93;9.00;;;409.90;2355.20;;;;;;4860595;29;20509;-78
2021/09/25 01:49:50;;;;;;;16.65;9.57;;;409.80;2355.20;;;;;;4858814;29;20029;-79
2021/09/25 01:52:18;;;;;;;15.02;9.25;;;409.80;2355.20;;;;;;4858673;29;20033;-78
2021/09/25 01:54:44;;;;;;;14.88;8.85;;;409.90;2355.20;;;;;;4860100;29;20136;-79
2021/09/25 01:57:10;;;;;;;14.38;8.73;;;410.00;2355.20;;;;;;4860085;29;20025;-77
2021/09/25 01:59:36;;;;;;;12.80;8.10;;;410.00;2355.20;;;;;;4867202;29;20033;-79
2021/09/25 02:02:02;;;;;;;11.50;7.80;;;410.20;2355.20;;;;;;4865719;29;20030;-79
2021/09/25 02:04:28;;;;;;;14.82;9.70;;;410.20;2355.20;;;;;;4859904;29;20025;-79
2021/09/25 02:06:54;;;;;;;13.00;8.52;;;410.30;2355.20;;;;;;4859906;29;20036;-78
2021/09/25 02:09:20;;;;;;;12.98;7.82;;;410.40;2355.20;;;;;;4863533;29;20029;-78
2021/09/25 02:11:46;;;;;;;14.02;8.85;;;410.40;2355.20;;;;;;4870448;29;20112;-78
2021/09/25 02:14:12;;;;;;;15.70;9.65;;;410.50;2355.20;;;;;;4863316;29;20398;-79
2021/09/25 02:16:37;;;;;;;14.43;9.45;;;410.50;2355.20;;;;;;4889568;29;20025;-79
2021/09/25 02:19:03;;;;;;;13.93;9.70;;;435.20;2355.20;;;;;;4878353;29;20470;-79
2021/09/25 02:21:29;;;;;;;13.70;8.23;;;435.20;2355.20;;;;;;4861522;29;20029;-79
2021/09/25 02:23:55;;;;;;;13.10;9.25;;;410.50;2355.20;;;;;;4885560;29;20060;-77
2021/09/25 02:26:21;;;;;;;11.77;8.57;;;435.20;2355.20;;;;;;4883007;29;20140;-78
2021/09/25 02:28:47;;;;;;;15.48;8.93;;;435.20;2355.20;;;;;;4865095;29;20021;-78
2021/09/25 02:31:12;;;;;;;14.60;9.00;;;435.20;2355.20;;;;;;4878461;29;20088;-78
2021/09/25 02:33:38;;;;;;;13.40;8.70;;;435.30;2355.20;;;;;;4861213;29;20037;-78
2021/09/25 02:36:04;;;;;;;11.98;9.15;;;435.20;2355.20;;;;;;4878338;29;20029;-79
2021/09/25 02:38:30;;;;;;;13.20;9.13;;;435.20;2355.20;;;;;;4877809;29;20033;-79
2021/09/25 02:40:56;;;;;;;13.48;9.43;;;435.30;2355.20;;;;;;4878007;29;20100;-78
2021/09/25 02:43:22;;;;;;;19.10;9.77;;;435.20;2355.20;;;;;;4878101;29;20036;-79
2021/09/25 02:45:47;;;;;;;12.75;8.48;;;435.20;2355.20;;;;;;4883504;29;20047;-78
2021/09/25 02:48:13;;;;;;;17.23;9.55;;;435.20;2355.20;;;;;;4885574;29;20478;-78
2021/09/25 02:50:39;;;;;;;14.18;8.65;;;410.50;2355.20;;;;;;4877830;29;20025;-79
2021/09/25 02:53:05;;;;;;;17.67;9.57;;;410.30;2355.20;;;;;;4887609;29;20083;-78
2021/09/25 02:55:31;;;;;;;13.07;9.15;;;410.20;2355.20;;;;;;4883068;29;20192;-78
2021/09/25 02:57:56;;;;;;;12.65;8.93;;;410.20;2355.20;;;;;;4881846;29;20032;-79
2021/09/25 03:00:23;;;;;;;15.10;8.82;;;410.20;2355.20;;;;;;4881444;29;20033;-78
2021/09/25 03:02:49;;;;;;;15.02;10.15;;;410.20;2355.20;;;;;;4865014;29;20466;-79
2021/09/25 03:05:15;;;;;;;13.30;9.35;;;410.00;2355.20;;;;;;4881434;29;20213;-78
2021/09/25 03:07:41;;;;;;;17.17;9.93;;;410.00;2355.20;;;;;;4864949;29;20039;-79
2021/09/25 03:10:07;;;;;;;14.00;9.93;;;410.00;2355.20;;;;;;4864772;29;20064;-79
2021/09/25 03:12:34;;;;;;;16.50;9.82;;;409.90;2355.20;;;;;;4880846;29;20053;-79
2021/09/25 03:15:01;;;;;;;15.02;9.68;;;409.70;2355.20;;;;;;4881527;29;20041;-79
2021/09/25 03:17:26;;;;;;;15.65;10.85;;;409.70;2355.20;;;;;;4881033;29;20113;-78
2021/09/25 03:19:52;;;;;;;15.13;10.32;;;409.60;2355.20;;;;;;4881601;29;20100;-78
2021/09/25 03:22:18;;;;;;;16.10;9.57;;;409.70;2355.20;;;;;;4864785;29;20041;-76
2021/09/25 03:24:45;;;;;;;15.90;10.27;;;409.60;2355.20;;;;;;4881246;29;20097;-76
2021/09/25 03:27:11;;;;;;;14.82;9.77;;;384.90;2329.60;;;;;;4864255;29;20030;-78
2021/09/25 03:29:37;;;;;;;19.35;11.30;;;384.90;2329.60;;;;;;4864596;29;20483;-78
2021/09/25 03:32:03;;;;;;;17.42;9.98;;;384.90;2329.60;;;;;;4881054;29;20037;-78
2021/09/25 03:34:29;;;;;;;16.70;10.45;;;384.90;2329.60;;;;;;4880977;29;20552;-78
2021/09/25 03:36:55;;;;;;;16.70;11.13;;;384.90;2329.60;;;;;;4864415;29;20065;-79
2021/09/25 03:39:21;;;;;;;18.10;12.57;;;384.90;2329.60;;;;;;4880836;29;20104;-78
2021/09/25 03:41:47;;;;;;;14.85;10.70;;;384.90;2329.60;;;;;;4864048;29;20194;-78
2021/09/25 03:44:12;;;;;;;17.77;11.98;;;409.60;2355.20;;;;;;4880863;29;20064;-78
2021/09/25 03:46:38;;;;;;;20.00;11.60;;;409.60;2355.20;;;;;;4880891;29;20040;-78
2021/09/25 03:49:04;;;;;;;19.02;9.98;;;409.70;2355.20;;;;;;4894220;29;20036;-78
2021/09/25 03:51:30;;;;;;;19.88;11.30;;;409.70;2355.20;;;;;;4881067;29;20021;-77
2021/09/25 03:53:56;;;;;;;16.23;10.60;;;409.80;2355.20;;;;;;4880713;29;20389;-78
2021/09/25 03:56:22;;;;;;;16.80;10.05;;;409.80;2355.20;;;;;;4864232;29;20029;-77
2021/09/25 03:58:48;;;;;;;14.05;8.77;;;410.00;2355.20;;;;;;4850575;29;20042;-76
2021/09/25 04:01:13;;;;;;;13.60;9.32;;;410.00;2355.20;;;;;;4864191;29;20081;-78
2021/09/25 04:03:39;;;;;;;11.57;8.40;;;410.00;2355.20;;;;;;4880456;29;20419;-78
2021/09/25 04:06:05;;;;;;;13.00;8.20;;;410.00;2355.20;;;;;;4879368;29;20081;-78
2021/09/25 04:08:32;;;;;;;12.00;8.15;;;410.00;2355.20;;;;;;4880968;29;20032;-77
2021/09/25 04:10:57;;;;;;;13.93;9.68;;;410.00;2355.20;;;;;;4880326;29;20033;-77
2021/09/25 04:13:23;;;;;;;14.50;9.82;;;410.00;2355.20;;;;;;4880442;29;20050;-77
2021/09/25 04:15:49;;;;;;;14.50;9.13;;;410.10;2355.20;;;;;;4862687;29;20052;-78
2021/09/25 04:18:15;;;;;;;15.63;9.30;;;410.20;2355.20;;;;;;4880427;29;20052;-78
2021/09/25 04:20:41;;;;;;;16.40;10.23;;;410.20;2355.20;;;;;;4863465;29;20029;-78
2021/09/25 04:23:07;;;;;;;14.77;10.30;;;410.00;2355.20;;;;;;4880329;29;20359;-79
2021/09/25 04:25:33;;;;;;;13.70;9.43;;;409.90;2355.20;;;;;;4887029;29;20039;-78
2021/09/25 04:28:05;;;;;;;14.45;10.60;;;409.80;2355.20;;;;;;4886364;29;20029;-78
2021/09/25 04:30:33;;;;;;;12.95;9.43;;;409.70;2355.20;;;;;;4880200;29;20021;-78
2021/09/25 04:32:59;;;;;;;14.07;9.10;;;409.70;2355.20;;;;;;4879883;29;20059;-76
2021/09/25 04:35:25;;;;;;;12.02;8.82;;;409.60;2355.20;;;;;;4880191;29;20072;-76
2021/09/25 04:37:50;;;;;;;15.10;9.25;;;384.90;2329.60;;;;;;4862835;29;20402;-78
2021/09/25 04:40:16;;;;;;;22.83;10.52;;;384.90;2329.60;;;;;;4880034;29;20025;-78
2021/09/25 04:42:42;;;;;;;14.77;8.48;;;384.80;2329.60;;;;;;4862983;29;20040;-78
2021/09/25 04:45:12;;;;;;;15.13;8.73;;;384.90;2329.60;;;;;;4879919;29;20029;-78
2021/09/25 04:47:39;;;;;;;15.15;9.00;;;384.80;2329.60;;;;;;4879308;29;20025;-78
2021/09/25 04:50:05;;;;;;;13.07;8.95;;;384.80;2329.60;;;;;;4862929;29;20039;-78
2021/09/25 04:52:31;;;;;;;14.93;9.52;;;384.80;2329.60;;;;;;4875748;29;20025;-76
2021/09/25 04:54:56;;;;;;;12.98;8.38;;;384.80;2329.60;;;;;;4879670;29;20037;-77
2021/09/25 04:57:22;;;;;;;16.33;9.93;;;384.80;2329.60;;;;;;4879601;29;20069;-78
2021/09/25 04:59:48;;;;;;;15.68;9.10;;;384.80;2329.60;;;;;;4862399;29;20051;-78
2021/09/25 05:02:14;;;;;;;13.32;8.90;;;384.80;2329.60;;;;;;4862692;29;20068;-78
2021/09/25 05:04:39;;;;;;;17.02;9.55;;;384.80;2329.60;;;;;;4879397;29;20031;-79
2021/09/25 05:07:05;;;;;;;14.63;8.40;;;384.80;2329.60;;;;;;4862797;29;20029;-77
2021/09/25 05:09:31;;;;;;;14.07;9.43;;;384.90;2329.60;;;;;;4879141;29;20047;-78
2021/09/25 05:11:56;;;;;;;14.30;9.10;;;384.90;2329.60;;;;;;4879307;29;20556;-78
2021/09/25 05:14:22;;;;;;;12.48;9.45;;;384.90;2329.60;;;;;;4875366;29;20049;-77
2021/09/25 05:16:48;;;;;;;14.45;9.00;;;409.60;2355.20;;;;;;4879167;29;20021;-77
2021/09/25 05:19:13;;;;;;;12.55;9.23;;;409.60;2355.20;;;;;;4862095;29;20474;-78
2021/09/25 05:21:39;;;;;;;14.95;9.43;;;409.60;2355.20;;;;;;4879177;29;20100;-76
2021/09/25 05:24:07;;;;;;;12.07;8.60;;;409.70;2355.20;;;;;;4879337;29;20033;-78
2021/09/25 05:26:35;;;;;;;12.30;9.40;;;409.70;2355.20;;;;;;4863236;29;20037;-77
2021/09/25 05:29:01;;;;;;;12.10;8.57;;;409.70;2355.20;;;;;;4890356;29;20032;-77
2021/09/25 05:31:27;;;;;;;12.60;8.02;;;409.80;2355.20;;;;;;4878853;29;20040;-77
2021/09/25 05:33:53;;;;;;;13.23;9.05;;;410.00;2355.20;;;;;;4878861;29;20493;-77
2021/09/25 05:36:19;;;;;;;14.57;9.77;;;410.00;2355.20;;;;;;4861952;29;20025;-76
2021/09/25 05:38:44;;;;;;;14.25;8.57;;;410.10;2355.20;;;;;;4862139;29;20028;-76
2021/09/25 05:41:10;;;;;;;11.00;7.63;;;410.20;2355.20;;;;;;4878540;29;20489;-75
2021/09/25 05:43:36;;;;;;;12.45;8.27;;;410.20;2355.20;;;;;;4878665;29;20389;-76
2021/09/25 05:46:02;;;;;;;12.35;8.68;;;410.20;2355.20;;;;;;4861475;29;20052;-76
2021/09/25 05:48:29;;;;;;;14.52;10.00;;;410.30;2355.20;;;;;;4874669;29;20032;-75
2021/09/25 05:50:55;;;;;;;17.08;9.05;;;410.30;2355.20;;;;;;4871766;29;20020;-75
2021/09/25 05:53:20;;;;;;;14.80;8.70;;;410.30;2355.20;;;;;;4869049;29;20590;-76
2021/09/25 05:55:46;;;;;;;21.65;10.02;;;410.40;2355.20;;;;;;4878585;29;20032;-77
2021/09/25 05:58:12;;;;;;;15.13;9.43;;;410.40;2355.20;;;;;;4871259;29;20036;-77
2021/09/25 06:00:37;;;;;;;12.75;8.90;;;410.50;2355.20;;;;;;4882255;29;20029;-78
2021/09/25 06:03:03;;;;;;;14.75;9.10;;;410.50;2355.20;;;;;;4878200;29;20044;-78
2021/09/25 06:05:31;;;;;;;12.52;9.20;;;435.20;2355.20;;;;;;4891553;29;20025;-76
2021/09/25 06:07:57;;;;;;;14.43;9.65;;;435.20;2355.20;;;;;;4861178;29;20029;-78
2021/09/25 06:10:23;;;;;;;16.45;8.75;;;435.30;2355.20;;;;;;4861726;29;20035;-78
2021/09/25 06:12:49;;;;;;;12.18;8.27;;;435.30;2355.20;;;;;;4881994;29;20104;-76
2021/09/25 06:15:14;;;;;;;15.23;8.60;;;435.40;2355.20;;;;;;4869932;29;20084;-76
2021/09/25 06:17:42;;;;;;;11.68;8.05;;;435.50;2355.20;;;;;;4861532;29;20029;-78
2021/09/25 06:20:09;;;;;;;17.98;8.48;;;435.50;2355.20;;;;;;4861311;29;20033;-78
2021/09/25 06:22:35;;;;;;;13.05;9.05;;;435.60;2355.20;;;;;;4878388;29;20077;-77
2021/09/25 06:25:01;;;;;;;11.55;8.20;;;435.70;2355.20;;;;;;4880746;29;20028;-76
2021/09/25 06:27:26;;;;;;;13.77;7.82;;;435.80;2355.20;;;;;;4896846;29;20024;-75
2021/09/25 06:29:52;;;;;;;10.25;7.22;;;435.90;2355.20;;;;;;4881966;29;20037;-76
2021/09/25 06:32:18;;;;;;;10.73;8.05;;;435.90;2355.20;;;;;;4860953;29;20036;-75
2021/09/25 06:34:44;;;;;;;14.10;8.00;;;436.10;2355.20;;;;;;4877905;29;20072;-75
2021/09/25 06:37:09;;;;;;;12.85;8.30;;;436.10;2355.20;;;;;;4860976;29;20502;-75
2021/09/25 06:39:35;;;;;;;10.48;7.63;;;460.80;2380.80;;;;;;4861198;29;20040;-75
2021/09/25 06:42:01;;;;;;;11.02;7.35;;;460.80;2380.80;;;;;;4877828;29;20033;-75
2021/09/25 06:44:27;;;;;;;11.80;8.35;;;460.90;2380.80;;;;;;4864709;29;20486;-78
2021/09/25 06:46:53;;;;;;;12.68;7.32;;;461.50;2380.80;;;;;;4869445;29;20028;-76
2021/09/25 06:49:19;;;;;;;12.50;7.93;;;461.30;2380.80;;;;;;4882759;29;20021;-77
2021/09/25 06:51:45;;;;;;;9.15;6.68;;;461.30;2380.80;;;;;;4862429;29;20040;-78
2021/09/25 06:54:11;;;;;;;14.52;7.65;;;461.70;2380.80;;;;;;4877907;29;20044;-80
2021/09/25 06:56:36;;;;;;;10.38;7.10;;;486.40;2380.80;;;;;;4877476;29;20026;-78
2021/09/25 06:59:02;;;;;;;11.63;7.05;;;486.40;2380.80;;;;;;4860763;29;20360;-75
2021/09/25 07:01:28;;;;;;;19.15;12.63;;;487.10;2380.80;;;;;;4877701;29;20054;-76
2021/09/25 07:03:54;;;;;;;10.80;8.48;;;486.70;2380.80;;;;;;4860731;29;20490;-76
2021/09/25 07:06:19;;;;;;;10.90;7.20;;;486.70;2380.80;;;;;;4877703;29;20051;-76
2021/09/25 07:08:45;;;;;;;11.95;7.18;;;486.80;2380.80;;;;;;4877817;29;20037;-76
2021/09/25 07:11:11;;;;;;;8.95;6.40;;;486.80;2380.80;;;;;;4860573;29;20037;-76
2021/09/25 07:13:37;;;;;;;12.60;7.13;;;487.00;2380.80;;;;;;4877408;29;20057;-77
2021/09/25 07:16:03;;;;;;;14.32;7.22;;;487.10;2380.80;;;;;;4877673;29;20033;-76
2021/09/25 07:18:28;;;;;;;10.73;6.25;;;487.20;2380.80;;;;;;4877493;29;20040;-77
2021/09/25 07:20:54;;;;;;;10.75;7.25;;;487.30;2380.80;;;;;;4877777;29;20040;-78
2021/09/25 07:23:20;;;;;;;9.48;7.07;;;487.30;2380.80;;;;;;4877488;29;20028;-76
2021/09/25 07:25:46;;;;;;;12.45;7.90;;;487.30;2380.80;;;;;;4875924;29;20567;-77
2021/09/25 07:28:12;;;;;;;9.70;6.40;;;512.00;2380.80;;;;;;4890618;29;20093;-77
2021/09/25 07:30:38;;;;;;;11.93;6.57;;;512.00;2380.80;;;;;;4860213;29;20037;-78
2021/09/25 07:33:05;;;;;;;11.68;6.40;;;512.10;2380.80;;;;;;4877522;29;20092;-75
2021/09/25 07:35:34;;;;;;;14.95;9.07;;;512.30;2380.80;;;;;;4877344;29;20051;-78
2021/09/25 07:38:02;;;;;;;8.57;5.57;;;512.30;2380.80;;;;;;4888903;29;20052;-78
2021/09/25 07:40:28;;;;;;;12.55;6.25;;;512.30;2380.80;;;;;;4880198;29;20052;-80
2021/09/25 07:42:54;;;;;;;12.60;6.88;;;512.30;2380.80;;;;;;4880928;29;20057;-76
2021/09/25 07:45:19;;;;;;;8.40;5.80;;;512.40;2380.80;;;;;;4893915;29;20032;-77
2021/09/25 07:47:46;;;;;;;12.05;6.10;;;512.50;2380.80;;;;;;4864152;29;20875;-75
2021/09/25 07:50:12;;;;;;;14.85;9.95;;;512.50;2380.80;;;;;;4866328;29;20033;-78
2021/09/25 07:52:41;;;;;;;9.50;5.88;;;512.60;2380.80;;;;;;4880741;29;20036;-79
2021/09/25 07:55:11;;;;;;;11.77;6.05;;;512.50;2380.80;;;;;;4880722;29;20085;-77
2021/09/25 07:57:38;;;;;;;5.88;4.93;;;512.60;2380.80;;;;;;4863774;29;20064;-78
2021/09/25 08:00:06;;;;;;;11.77;6.40;;;512.70;2380.80;;;;;;4880822;29;20080;-76
2021/09/25 08:02:31;;;;;;;10.43;5.57;;;512.60;2380.80;;;;;;4863683;29;20036;-76
2021/09/25 08:04:57;;;;;;;10.02;5.95;;;512.70;2380.80;;;;;;4863809;29;20025;-75
2021/09/25 08:07:23;;;;;;;9.80;5.60;;;512.80;2355.20;;;;;;4863282;29;20036;-76
2021/09/25 08:09:49;;;;;;;7.50;5.22;;;512.80;2380.80;;;;;;4880565;29;20021;-74
2021/09/25 08:12:14;;;;;;;6.25;4.68;;;512.80;2380.80;;;;;;4880153;29;20133;-77
2021/09/25 08:14:40;;;;;;;7.80;5.68;;;512.80;2380.80;;;;;;4880331;29;20389;-75
2021/09/25 08:17:06;;;;;;;9.55;5.15;;;512.80;2380.80;;;;;;4880105;29;20488;-76
2021/09/25 08:19:31;;;;;;;19.63;12.23;;;537.60;2380.80;;;;;;4880202;29;20036;-78
2021/09/25 08:21:57;;;;;;;30.55;18.40;;;537.60;2355.20;;;;;;4880169;29;20060;-76
2021/09/25 08:24:23;;;;;;;10.10;6.53;;;537.60;2355.20;;;;;;4880105;29;20061;-78
2021/09/25 08:26:48;;;;;;;12.63;3.50;;;537.60;2355.20;;;;;;4880296;29;20096;-77
2021/09/25 08:29:14;;;;;;;8.93;4.63;;;537.60;2304.00;;;;;;4863328;29;20058;-77
2021/09/25 08:31:40;;;;;;;11.85;9.00;;;537.60;2304.00;;;;;;4863333;29;20466;-78
2021/09/25 08:34:06;;;;;;;4.85;3.45;;;537.60;2329.60;;;;;;4887117;29;20045;-77
2021/09/25 08:36:31;;;;;;;7.97;4.55;;;537.70;2278.40;;;;;;4886078;29;20025;-77
2021/09/25 08:38:57;;;;;;;14.25;9.05;;;537.80;2304.00;;;;;;4884261;29;20111;-78
2021/09/25 08:41:23;;;;;;;5.63;4.10;;;537.90;2329.60;;;;;;4890024;29;20033;-79
2021/09/25 08:43:51;;;;;;;6.47;3.78;;;538.00;2304.00;;;;;;4884715;29;20036;-76
2021/09/25 08:46:17;;;;;;;5.18;3.22;;;538.50;2304.00;;;;;;4879547;29;20048;-78
2021/09/25 08:48:43;;;;;;;5.18;3.42;;;538.20;2304.00;;;;;;4879229;29;20382;-78
2021/09/25 08:51:09;;;;;;;8.52;3.60;;;538.10;2278.40;;;;;;4876756;29;20024;-78
2021/09/25 08:53:35;;;;;;;6.00;2.97;;;538.20;2278.40;;;;;;4861790;29;20037;-78
2021/09/25 08:56:01;;;;;;;4.50;2.78;;;538.00;2227.20;;;;;;4879388;29;20037;-79
2021/09/25 08:58:27;;;;;;;6.70;3.72;;;538.50;2227.20;;;;;;4879584;29;20496;-79
2021/09/25 09:00:55;;;;;;;4.40;3.10;;;538.50;2278.40;;;;;;4879338;29;20076;-75
2021/09/25 09:03:34;;;;;;;7.07;3.60;;;538.50;2252.80;;;;;;4879426;29;20013;-78
2021/09/25 09:06:09;;;;;;;14.02;5.05;;;563.20;2252.80;;;;;;4879379;29;20053;-78
2021/09/25 09:08:36;;;;;;;5.60;3.38;;;563.30;2278.40;;;;;;4862787;29;20028;-80
2021/09/25 09:11:04;;;;;;;20.85;12.05;;;563.40;2227.20;;;;;;4879444;29;20033;-80
2021/09/25 09:13:30;;;;;;;26.38;16.15;;;563.50;2227.20;;;;;;4879107;29;20121;-79
2021/09/25 09:16:00;;;;;;;6.82;4.55;;;563.60;2227.20;;;;;;4862606;29;20040;-77
2021/09/25 09:18:25;;;;;;;6.13;3.00;;;563.60;2227.20;;;;;;4862147;29;20028;-80
2021/09/25 09:21:16;;;;;;;7.88;3.08;;;563.70;2201.60;;;;;;4862403;29;20025;-79
2021/09/25 09:23:50;;;;;;;6.93;4.07;;;563.80;2176.00;;;;;;4850702;29;20048;-79
2021/09/25 09:26:39;;;;;;;7.40;3.50;;;563.90;2099.20;;;;;;4879080;29;20037;-79
2021/09/25 09:29:06;;;;;;;7.43;3.85;;;;;;;;;;4878146;29;20040;-80
2021/09/25 09:31:33;;;;;;;5.93;4.75;;;588.80;2099.20;;;;;;4862427;29;20031;-80
2021/09/25 09:34:01;;;;;;;9.32;3.13;;;589.00;2099.20;;;;;;4878736;29;20041;-78
2021/09/25 09:36:41;;;;;;;5.55;2.67;;;589.10;2073.60;;;;;;4879129;29;20432;-75
2021/09/25 09:39:17;;;;;;;5.00;2.92;;;589.10;2073.60;;;;;;4874483;29;20061;-79
2021/09/25 09:41:43;;;;;;;;;;;589.20;2073.60;;;;;;4878684;29;20032;-75
2021/09/25 09:44:19;;;;;;;4.68;3.25;;;589.40;2022.40;;;;;;4878623;29;19912;-80
2021/09/25 09:47:03;;;;;;;4.22;3.00;;;589.50;2022.40;;;;;;4878050;29;20032;-80
2021/09/25 09:49:37;;;;;;;6.30;3.58;;;589.60;2048.00;;;;;;4865714;29;20041;-81
2021/09/25 09:52:08;;;;;;;6.13;4.07;;;589.70;1996.80;;;;;;4870375;29;20128;-83
2021/09/25 09:54:36;;;;;;;7.13;3.33;;;614.50;1971.20;;;;;;4883651;29;20077;-80
2021/09/25 09:57:08;;;;;;;9.50;6.82;;;614.60;1996.80;;;;;;4879026;29;20111;-83
2021/09/25 09:59:35;;;;;;;6.70;3.17;;;614.80;1971.20;;;;;;4862449;29;20033;-80
2021/09/25 10:02:01;;;;;;;5.57;3.50;;;614.90;1971.20;;;;;;4861741;29;20474;-79
2021/09/25 10:04:26;;;;;;;4.93;3.45;;;615.00;1945.60;;;;;;4877709;29;20025;-78
2021/09/25 10:06:53;;;;;;;6.50;4.40;;;615.10;1945.60;;;;;;4878504;29;20526;-81
2021/09/25 10:09:24;;;;;;;9.23;3.47;;;615.30;2099.20;;;;;;4862176;29;20040;-79
2021/09/25 10:11:53;;;;;;;4.03;3.00;;;640.00;1945.60;;;;;;4878245;29;20048;-81
2021/09/25 10:14:24;;;;;;;7.10;6.20;;;640.20;1945.60;;;;;;4881105;29;20041;-80
2021/09/25 10:16:50;;;;;;;8.68;5.53;;;640.20;1920.00;;;;;;4887992;29;20076;-79
2021/09/25 10:19:19;;;;;;;8.85;4.90;;;640.60;1920.00;;;;;;4880757;29;20040;-76
2021/09/25 10:21:48;;;;;;;5.53;3.40;;;640.60;1868.80;;;;;;4878345;29;20029;-79
2021/09/25 10:24:53;;;;;;;4.97;3.20;;;640.80;1843.20;;;;;;4878079;29;20064;-77
2021/09/25 10:27:20;;;;;;;6.72;3.17;;;665.60;1843.20;;;;;;4802623;29;20114;-78
2021/09/25 10:29:51;;;;;;;5.18;2.92;;;665.80;1792.00;;;;;;4803110;29;20034;-83
2021/09/25 10:32:27;;;;;;;12.73;8.55;;;665.70;1843.20;;;;;;4802957;29;20118;-83
2021/09/25 10:35:20;;;;;;;8.27;4.38;;;666.00;1817.60;;;;;;4788136;29;20039;-84
2021/09/25 10:38:02;;;;;;;4.70;3.55;;;666.20;1792.00;;;;;;4803209;29;20261;-83
2021/09/25 10:40:36;;;;;;;5.55;3.33;;;666.50;1740.80;;;;;;4803435;29;20034;-82
2021/09/25 10:43:16;;;;;;;4.35;3.40;;;691.20;1740.80;;;;;;4802813;29;20096;-79
2021/09/25 10:45:42;;;;;;;5.50;4.15;;;691.20;1715.20;;;;;;4816305;29;20080;-81
2021/09/25 10:48:15;;;;;;;4.80;3.80;;;691.30;1689.60;;;;;;4798463;29;20546;-81
2021/09/25 10:50:49;;;;;;;4.75;2.55;;;691.40;1689.60;;;;;;4808413;29;20087;-78
2021/09/25 10:53:22;;;;;;;6.43;3.10;;;691.70;1664.00;;;;;;4793944;29;20031;-76
2021/09/25 10:55:50;;;;;;;6.57;3.40;;;691.80;1664.00;;;;;;4799736;29;20038;-77
2021/09/25 10:58:20;;;;;;;3.70;3.00;;;691.90;1638.40;;;;;;4786894;29;20039;-77
2021/09/25 11:00:58;;;;;;;3.65;2.85;;;691.90;1612.80;;;;;;4801639;29;20543;-76
2021/09/25 11:03:40;;;;;;;3.83;2.78;;;692.10;1587.20;;;;;;4833249;29;20037;-79
2021/09/25 11:06:08;;;;;;;7.43;3.03;;;692.10;1587.20;;;;;;4881577;29;20028;-83
2021/09/25 11:08:35;;;;;;;6.20;3.70;;;716.80;1638.40;;;;;;4891237;29;20124;-80
2021/09/25 11:11:13;;;;;;;7.53;3.40;;;717.00;1664.00;;;;;;4880052;29;20227;-76
2021/09/25 11:14:00;;;;;;;5.28;3.40;;;717.00;1766.40;;;;;;4867483;29;20053;-75
2021/09/25 11:16:54;;;;;;;6.43;3.30;;;716.80;1740.80;;;;;;4881479;29;20038;-75
2021/09/25 11:19:24;;;;;;;3.80;3.00;;;717.10;1689.60;;;;;;4867272;29;20508;-77
2021/09/25 11:22:12;;;;;;;6.97;6.03;;;716.90;1740.80;;;;;;4862248;29;20021;-77
2021/09/25 11:24:54;;;;;;;4.85;3.00;;;692.10;1664.00;;;;;;4858678;29;20037;-81
2021/09/25 11:27:29;;;;;;;4.55;2.72;;;717.20;1664.00;;;;;;4861257;29;20037;-80
2021/09/25 11:30:11;;;;;;;11.70;3.63;;;717.10;1689.60;;;;;;4862038;29;20021;-78
2021/09/25 11:32:51;;;;;;;4.82;3.65;;;717.20;1638.40;;;;;;4861924;29;20506;-78
2021/09/25 11:35:18;;;;;;;5.40;3.25;;;717.40;1689.60;;;;;;4859829;29;20854;-80
2021/09/25 11:37:48;;;;;;;11.30;3.20;;;717.30;1664.00;;;;;;4861972;29;20018;-75
2021/09/25 11:40:15;;;;;;;5.43;3.10;;;717.50;1638.40;;;;;;4862439;29;20055;-78
2021/09/25 11:42:40;;;;;;;4.82;3.00;;;717.50;1587.20;;;;;;4869638;29;20525;-79
2021/09/25 11:45:09;;;;;;;6.35;3.03;;;717.60;1587.20;;;;;;4872495;29;20120;-79
2021/09/25 11:47:46;;;;;;;6.65;3.15;;;717.70;1612.80;;;;;;4872489;29;20076;-80
2021/09/25 11:50:14;;;;;;;3.95;2.90;;;742.60;1612.80;;;;;;4872248;29;20512;-81
2021/09/25 11:52:42;;;;;;;5.45;3.17;;;742.50;1612.80;;;;;;4873174;29;20039;-84
2021/09/25 11:55:10;;;;;;;7.40;3.45;;;717.70;1612.80;;;;;;4873275;29;20045;-83
2021/09/25 11:57:36;;;;;;;9.27;3.03;;;742.40;1638.40;;;;;;4872110;29;20021;-77
2021/09/25 12:00:19;;;;;;;3.67;2.97;;;742.50;1587.20;;;;;;4866331;29;20415;-76
2021/09/25 12:02:47;;;;;;;6.90;3.08;;;742.70;1561.60;;;;;;4871353;29;20060;-77
2021/09/25 12:05:47;;;;;;;7.97;3.28;;;742.70;1587.20;;;;;;4869603;29;20032;-77
2021/09/25 12:08:17;;;;;;;8.55;3.80;;;742.80;1561.60;;;;;;4868473;29;20021;-78
2021/09/25 12:10:44;;;;;;;4.05;2.88;;;742.90;1561.60;;;;;;4870164;29;20014;-77
2021/09/25 12:13:20;;;;;;;6.88;3.00;;;742.90;1510.40;;;;;;4881563;29;20052;-78